sensor_id;sensor_type;location;lat;lon;timestamp;P1;durP1;ratioP1;P2;durP2;ratioP2
54841;SDS011;40741;45.002;7.536;2024-01-30T00:02:08;81.38;;;42.80;;
54841;SDS011;40741;45.002;7.536;2024-01-30T00:04:34;73.60;;;40.40;;
54841;SDS011;40741;45.002;7.536;2024-01-30T00:07:00;72.78;;;39.53;;
54841;SDS011;40741;45.002;7.536;2024-01-30T00:09:26;82.82;;;40.70;;
54841;SDS011;40741;45.002;7.536;2024-01-30T00:11:52;70.35;;;39.60;;
54841;SDS011;40741;45.002;7.536;2024-01-30T00:14:18;76.85;;;39.50;;
54841;SDS011;40741;45.002;7.536;2024-01-30T00:16:44;65.43;;;36.10;;
54841;SDS011;40741;45.002;7.536;2024-01-30T00:19:10;70.45;;;39.63;;
54841;SDS011;40741;45.002;7.536;2024-01-30T00:21:36;73.68;;;39.35;;
54841;SDS011;40741;45.002;7.536;2024-01-30T00:24:02;68.70;;;39.00;;
54841;SDS011;40741;45.002;7.536;2024-01-30T00:26:29;75.78;;;39.72;;
54841;SDS011;40741;45.002;7.536;2024-01-30T00:28:55;71.82;;;37.83;;
54841;SDS011;40741;45.002;7.536;2024-01-30T00:31:21;64.72;;;38.20;;
54841;SDS011;40741;45.002;7.536;2024-01-30T00:33:47;66.95;;;37.58;;
54841;SDS011;40741;45.002;7.536;2024-01-30T00:36:13;71.82;;;36.60;;
54841;SDS011;40741;45.002;7.536;2024-01-30T00:38:39;70.68;;;38.58;;
54841;SDS011;40741;45.002;7.536;2024-01-30T00:41:06;68.15;;;37.05;;
54841;SDS011;40741;45.002;7.536;2024-01-30T00:43:32;67.72;;;37.90;;
54841;SDS011;40741;45.002;7.536;2024-01-30T00:45:58;65.00;;;36.28;;
54841;SDS011;40741;45.002;7.536;2024-01-30T00:48:25;64.40;;;34.63;;
54841;SDS011;40741;45.002;7.536;2024-01-30T00:50:51;63.53;;;35.63;;
54841;SDS011;40741;45.002;7.536;2024-01-30T00:53:17;69.95;;;36.33;;
54841;SDS011;40741;45.002;7.536;2024-01-30T00:55:43;70.85;;;35.67;;
54841;SDS011;40741;45.002;7.536;2024-01-30T00:58:09;61.38;;;34.90;;
54841;SDS011;40741;45.002;7.536;2024-01-30T01:00:35;64.85;;;35.80;;
54841;SDS011;40741;45.002;7.536;2024-01-30T01:03:02;63.22;;;35.80;;
54841;SDS011;40741;45.002;7.536;2024-01-30T01:05:28;66.47;;;35.35;;
54841;SDS011;40741;45.002;7.536;2024-01-30T01:07:54;64.72;;;35.15;;
54841;SDS011;40741;45.002;7.536;2024-01-30T01:10:20;68.38;;;36.85;;
54841;SDS011;40741;45.002;7.536;2024-01-30T01:12:47;69.32;;;36.83;;
54841;SDS011;40741;45.002;7.536;2024-01-30T01:15:13;63.88;;;35.17;;
54841;SDS011;40741;45.002;7.536;2024-01-30T01:17:39;70.90;;;36.10;;
54841;SDS011;40741;45.002;7.536;2024-01-30T01:20:06;73.03;;;35.90;;
54841;SDS011;40741;45.002;7.536;2024-01-30T01:22:33;68.05;;;37.85;;
54841;SDS011;40741;45.002;7.536;2024-01-30T01:24:59;71.10;;;37.03;;
54841;SDS011;40741;45.002;7.536;2024-01-30T01:27:25;72.57;;;36.80;;
54841;SDS011;40741;45.002;7.536;2024-01-30T01:29:51;66.20;;;34.55;;
54841;SDS011;40741;45.002;7.536;2024-01-30T01:32:18;65.70;;;34.72;;
54841;SDS011;40741;45.002;7.536;2024-01-30T01:34:44;64.90;;;36.42;;
54841;SDS011;40741;45.002;7.536;2024-01-30T01:37:10;64.90;;;35.50;;
54841;SDS011;40741;45.002;7.536;2024-01-30T01:39:36;71.75;;;36.10;;
54841;SDS011;40741;45.002;7.536;2024-01-30T01:42:02;70.60;;;35.67;;
54841;SDS011;40741;45.002;7.536;2024-01-30T01:44:28;65.63;;;35.20;;
54841;SDS011;40741;45.002;7.536;2024-01-30T01:46:54;69.18;;;35.55;;
54841;SDS011;40741;45.002;7.536;2024-01-30T01:49:21;65.30;;;33.60;;
54841;SDS011;40741;45.002;7.536;2024-01-30T01:51:47;67.20;;;34.15;;
54841;SDS011;40741;45.002;7.536;2024-01-30T01:54:14;63.92;;;35.10;;
54841;SDS011;40741;45.002;7.536;2024-01-30T01:56:40;60.40;;;32.35;;
54841;SDS011;40741;45.002;7.536;2024-01-30T01:59:07;64.85;;;34.10;;
54841;SDS011;40741;45.002;7.536;2024-01-30T02:01:33;65.63;;;33.75;;
54841;SDS011;40741;45.002;7.536;2024-01-30T02:04:00;62.70;;;35.35;;
54841;SDS011;40741;45.002;7.536;2024-01-30T02:06:26;71.38;;;36.22;;
54841;SDS011;40741;45.002;7.536;2024-01-30T02:08:53;72.45;;;35.38;;
54841;SDS011;40741;45.002;7.536;2024-01-30T02:11:19;59.75;;;32.75;;
54841;SDS011;40741;45.002;7.536;2024-01-30T02:13:45;61.72;;;32.53;;
54841;SDS011;40741;45.002;7.536;2024-01-30T02:16:12;64.18;;;33.35;;
54841;SDS011;40741;45.002;7.536;2024-01-30T02:18:38;60.90;;;34.17;;
54841;SDS011;40741;45.002;7.536;2024-01-30T02:21:08;65.28;;;32.67;;
54841;SDS011;40741;45.002;7.536;2024-01-30T02:23:34;61.17;;;33.22;;
54841;SDS011;40741;45.002;7.536;2024-01-30T02:26:00;66.07;;;33.75;;
54841;SDS011;40741;45.002;7.536;2024-01-30T02:28:26;64.65;;;34.92;;
54841;SDS011;40741;45.002;7.536;2024-01-30T02:30:52;63.15;;;34.17;;
54841;SDS011;40741;45.002;7.536;2024-01-30T02:33:19;60.30;;;31.73;;
54841;SDS011;40741;45.002;7.536;2024-01-30T02:35:47;56.05;;;32.42;;
54841;SDS011;40741;45.002;7.536;2024-01-30T02:38:13;63.45;;;34.00;;
54841;SDS011;40741;45.002;7.536;2024-01-30T02:40:39;66.30;;;33.70;;
54841;SDS011;40741;45.002;7.536;2024-01-30T02:43:05;64.50;;;33.38;;
54841;SDS011;40741;45.002;7.536;2024-01-30T02:45:31;56.70;;;31.98;;
54841;SDS011;40741;45.002;7.536;2024-01-30T02:47:57;60.80;;;32.53;;
54841;SDS011;40741;45.002;7.536;2024-01-30T02:50:23;61.42;;;33.42;;
54841;SDS011;40741;45.002;7.536;2024-01-30T02:52:49;62.65;;;33.95;;
54841;SDS011;40741;45.002;7.536;2024-01-30T02:55:15;70.35;;;34.40;;
54841;SDS011;40741;45.002;7.536;2024-01-30T02:57:44;61.63;;;34.03;;
54841;SDS011;40741;45.002;7.536;2024-01-30T03:00:10;59.90;;;33.20;;
54841;SDS011;40741;45.002;7.536;2024-01-30T03:02:36;57.08;;;32.08;;
54841;SDS011;40741;45.002;7.536;2024-01-30T03:05:03;59.95;;;32.40;;
54841;SDS011;40741;45.002;7.536;2024-01-30T03:07:29;64.10;;;33.97;;
54841;SDS011;40741;45.002;7.536;2024-01-30T03:09:55;59.72;;;32.72;;
54841;SDS011;40741;45.002;7.536;2024-01-30T03:12:22;58.92;;;31.85;;
54841;SDS011;40741;45.002;7.536;2024-01-30T03:14:48;60.28;;;31.88;;
54841;SDS011;40741;45.002;7.536;2024-01-30T03:17:14;60.55;;;31.92;;
54841;SDS011;40741;45.002;7.536;2024-01-30T03:19:40;61.40;;;31.48;;
54841;SDS011;40741;45.002;7.536;2024-01-30T03:22:06;57.35;;;31.95;;
54841;SDS011;40741;45.002;7.536;2024-01-30T03:24:32;57.55;;;31.55;;
54841;SDS011;40741;45.002;7.536;2024-01-30T03:26:58;55.45;;;31.08;;
54841;SDS011;40741;45.002;7.536;2024-01-30T03:29:25;57.28;;;31.90;;
54841;SDS011;40741;45.002;7.536;2024-01-30T03:31:51;57.10;;;30.83;;
54841;SDS011;40741;45.002;7.536;2024-01-30T03:34:17;63.65;;;32.78;;
54841;SDS011;40741;45.002;7.536;2024-01-30T03:36:43;61.28;;;31.58;;
54841;SDS011;40741;45.002;7.536;2024-01-30T03:39:09;58.35;;;30.58;;
54841;SDS011;40741;45.002;7.536;2024-01-30T03:41:35;58.33;;;32.70;;
54841;SDS011;40741;45.002;7.536;2024-01-30T03:44:01;61.55;;;32.03;;
54841;SDS011;40741;45.002;7.536;2024-01-30T03:46:27;63.45;;;31.98;;
54841;SDS011;40741;45.002;7.536;2024-01-30T03:48:53;58.92;;;30.52;;
54841;SDS011;40741;45.002;7.536;2024-01-30T03:51:19;71.38;;;33.35;;
54841;SDS011;40741;45.002;7.536;2024-01-30T03:53:45;58.08;;;33.10;;
54841;SDS011;40741;45.002;7.536;2024-01-30T03:56:12;62.95;;;30.98;;
54841;SDS011;40741;45.002;7.536;2024-01-30T03:58:39;58.58;;;31.95;;
54841;SDS011;40741;45.002;7.536;2024-01-30T04:01:05;56.35;;;30.63;;
54841;SDS011;40741;45.002;7.536;2024-01-30T04:03:31;58.55;;;31.00;;
54841;SDS011;40741;45.002;7.536;2024-01-30T04:05:57;57.25;;;30.60;;
54841;SDS011;40741;45.002;7.536;2024-01-30T04:08:23;55.63;;;30.52;;
54841;SDS011;40741;45.002;7.536;2024-01-30T04:10:49;57.92;;;31.90;;
54841;SDS011;40741;45.002;7.536;2024-01-30T04:13:15;61.13;;;31.00;;
54841;SDS011;40741;45.002;7.536;2024-01-30T04:15:41;62.30;;;31.35;;
54841;SDS011;40741;45.002;7.536;2024-01-30T04:18:07;62.33;;;32.15;;
54841;SDS011;40741;45.002;7.536;2024-01-30T04:20:33;57.55;;;32.85;;
54841;SDS011;40741;45.002;7.536;2024-01-30T04:22:59;67.20;;;33.95;;
54841;SDS011;40741;45.002;7.536;2024-01-30T04:25:25;62.53;;;32.45;;
54841;SDS011;40741;45.002;7.536;2024-01-30T04:27:51;60.13;;;31.70;;
54841;SDS011;40741;45.002;7.536;2024-01-30T04:30:17;62.58;;;32.90;;
54841;SDS011;40741;45.002;7.536;2024-01-30T04:32:43;60.03;;;31.17;;
54841;SDS011;40741;45.002;7.536;2024-01-30T04:35:09;61.13;;;32.40;;
54841;SDS011;40741;45.002;7.536;2024-01-30T04:37:35;65.00;;;33.72;;
54841;SDS011;40741;45.002;7.536;2024-01-30T04:40:02;60.22;;;31.58;;
54841;SDS011;40741;45.002;7.536;2024-01-30T04:42:28;67.20;;;31.88;;
54841;SDS011;40741;45.002;7.536;2024-01-30T04:44:54;55.75;;;30.30;;
54841;SDS011;40741;45.002;7.536;2024-01-30T04:47:20;66.15;;;34.13;;
54841;SDS011;40741;45.002;7.536;2024-01-30T04:49:46;64.07;;;32.25;;
54841;SDS011;40741;45.002;7.536;2024-01-30T04:52:12;59.05;;;32.40;;
54841;SDS011;40741;45.002;7.536;2024-01-30T04:54:38;57.67;;;31.38;;
54841;SDS011;40741;45.002;7.536;2024-01-30T04:57:04;60.10;;;31.25;;
54841;SDS011;40741;45.002;7.536;2024-01-30T04:59:36;58.28;;;33.03;;
54841;SDS011;40741;45.002;7.536;2024-01-30T05:02:02;58.55;;;31.10;;
54841;SDS011;40741;45.002;7.536;2024-01-30T05:04:28;66.80;;;33.78;;
54841;SDS011;40741;45.002;7.536;2024-01-30T05:06:54;61.15;;;31.38;;
54841;SDS011;40741;45.002;7.536;2024-01-30T05:09:21;68.07;;;32.78;;
54841;SDS011;40741;45.002;7.536;2024-01-30T05:11:47;61.65;;;31.25;;
54841;SDS011;40741;45.002;7.536;2024-01-30T05:14:13;59.75;;;32.33;;
54841;SDS011;40741;45.002;7.536;2024-01-30T05:16:40;63.15;;;31.60;;
54841;SDS011;40741;45.002;7.536;2024-01-30T05:19:07;60.83;;;32.78;;
54841;SDS011;40741;45.002;7.536;2024-01-30T05:21:34;59.85;;;33.83;;
54841;SDS011;40741;45.002;7.536;2024-01-30T05:24:00;60.25;;;32.30;;
54841;SDS011;40741;45.002;7.536;2024-01-30T05:26:26;55.50;;;31.55;;
54841;SDS011;40741;45.002;7.536;2024-01-30T05:28:52;63.40;;;32.97;;
54841;SDS011;40741;45.002;7.536;2024-01-30T05:31:18;61.65;;;31.67;;
54841;SDS011;40741;45.002;7.536;2024-01-30T05:33:44;62.03;;;32.25;;
54841;SDS011;40741;45.002;7.536;2024-01-30T05:36:13;60.17;;;32.60;;
54841;SDS011;40741;45.002;7.536;2024-01-30T05:38:39;55.45;;;30.65;;
54841;SDS011;40741;45.002;7.536;2024-01-30T05:41:05;61.08;;;31.73;;
54841;SDS011;40741;45.002;7.536;2024-01-30T05:43:31;59.05;;;31.02;;
54841;SDS011;40741;45.002;7.536;2024-01-30T05:45:57;60.50;;;31.67;;
54841;SDS011;40741;45.002;7.536;2024-01-30T05:48:23;57.75;;;29.65;;
54841;SDS011;40741;45.002;7.536;2024-01-30T05:50:49;54.85;;;30.48;;
54841;SDS011;40741;45.002;7.536;2024-01-30T05:53:15;61.78;;;31.23;;
54841;SDS011;40741;45.002;7.536;2024-01-30T05:55:41;57.60;;;30.63;;
54841;SDS011;40741;45.002;7.536;2024-01-30T05:58:07;59.17;;;31.88;;
54841;SDS011;40741;45.002;7.536;2024-01-30T06:00:33;55.97;;;29.83;;
54841;SDS011;40741;45.002;7.536;2024-01-30T06:02:59;62.45;;;30.30;;
54841;SDS011;40741;45.002;7.536;2024-01-30T06:05:25;56.88;;;30.38;;
54841;SDS011;40741;45.002;7.536;2024-01-30T06:07:51;61.78;;;32.33;;
54841;SDS011;40741;45.002;7.536;2024-01-30T06:10:17;59.22;;;30.58;;
54841;SDS011;40741;45.002;7.536;2024-01-30T06:12:43;64.60;;;34.28;;
54841;SDS011;40741;45.002;7.536;2024-01-30T06:15:09;63.13;;;32.40;;
54841;SDS011;40741;45.002;7.536;2024-01-30T06:17:37;59.40;;;30.70;;
54841;SDS011;40741;45.002;7.536;2024-01-30T06:20:04;62.08;;;30.52;;
54841;SDS011;40741;45.002;7.536;2024-01-30T06:22:30;57.92;;;31.02;;
54841;SDS011;40741;45.002;7.536;2024-01-30T06:24:56;59.17;;;30.27;;
54841;SDS011;40741;45.002;7.536;2024-01-30T06:27:22;53.88;;;29.35;;
54841;SDS011;40741;45.002;7.536;2024-01-30T06:29:48;51.95;;;26.50;;
54841;SDS011;40741;45.002;7.536;2024-01-30T06:32:14;52.25;;;25.25;;
54841;SDS011;40741;45.002;7.536;2024-01-30T06:34:40;45.13;;;22.73;;
54841;SDS011;40741;45.002;7.536;2024-01-30T06:37:08;44.17;;;24.33;;
54841;SDS011;40741;45.002;7.536;2024-01-30T06:39:34;55.35;;;25.58;;
54841;SDS011;40741;45.002;7.536;2024-01-30T06:42:01;51.65;;;25.50;;
54841;SDS011;40741;45.002;7.536;2024-01-30T06:44:27;50.05;;;26.30;;
54841;SDS011;40741;45.002;7.536;2024-01-30T06:46:53;47.72;;;25.85;;
54841;SDS011;40741;45.002;7.536;2024-01-30T06:49:19;54.78;;;27.20;;
54841;SDS011;40741;45.002;7.536;2024-01-30T06:51:47;53.10;;;28.02;;
54841;SDS011;40741;45.002;7.536;2024-01-30T06:54:13;53.70;;;27.83;;
54841;SDS011;40741;45.002;7.536;2024-01-30T06:56:39;14.02;;;8.75;;
54841;SDS011;40741;45.002;7.536;2024-01-30T06:59:05;53.88;;;26.83;;
54841;SDS011;40741;45.002;7.536;2024-01-30T07:01:31;58.90;;;29.58;;
54841;SDS011;40741;45.002;7.536;2024-01-30T07:03:57;52.25;;;27.75;;
54841;SDS011;40741;45.002;7.536;2024-01-30T07:06:23;15.52;;;9.93;;
54841;SDS011;40741;45.002;7.536;2024-01-30T07:08:49;53.63;;;29.52;;
54841;SDS011;40741;45.002;7.536;2024-01-30T07:11:19;63.10;;;31.52;;
54841;SDS011;40741;45.002;7.536;2024-01-30T07:13:47;60.72;;;31.73;;
54841;SDS011;40741;45.002;7.536;2024-01-30T07:16:15;60.35;;;32.80;;
54841;SDS011;40741;45.002;7.536;2024-01-30T07:18:41;56.78;;;31.33;;
54841;SDS011;40741;45.002;7.536;2024-01-30T07:21:07;63.33;;;33.03;;
54841;SDS011;40741;45.002;7.536;2024-01-30T07:23:33;63.40;;;33.45;;
54841;SDS011;40741;45.002;7.536;2024-01-30T07:26:00;64.18;;;33.90;;
54841;SDS011;40741;45.002;7.536;2024-01-30T07:28:26;65.43;;;35.33;;
54841;SDS011;40741;45.002;7.536;2024-01-30T07:30:52;63.80;;;35.08;;
54841;SDS011;40741;45.002;7.536;2024-01-30T07:33:18;61.50;;;32.90;;
54841;SDS011;40741;45.002;7.536;2024-01-30T07:35:45;63.85;;;34.70;;
54841;SDS011;40741;45.002;7.536;2024-01-30T07:38:11;64.22;;;35.03;;
54841;SDS011;40741;45.002;7.536;2024-01-30T07:40:37;70.53;;;36.25;;
54841;SDS011;40741;45.002;7.536;2024-01-30T07:43:03;72.13;;;36.47;;
54841;SDS011;40741;45.002;7.536;2024-01-30T07:45:29;70.00;;;39.40;;
54841;SDS011;40741;45.002;7.536;2024-01-30T07:47:58;64.50;;;37.47;;
54841;SDS011;40741;45.002;7.536;2024-01-30T07:50:27;75.80;;;37.50;;
54841;SDS011;40741;45.002;7.536;2024-01-30T07:52:55;79.22;;;40.08;;
54841;SDS011;40741;45.002;7.536;2024-01-30T07:55:21;72.80;;;39.13;;
54841;SDS011;40741;45.002;7.536;2024-01-30T07:57:52;72.40;;;39.22;;
54841;SDS011;40741;45.002;7.536;2024-01-30T08:00:19;71.88;;;38.53;;
54841;SDS011;40741;45.002;7.536;2024-01-30T08:02:45;78.40;;;39.50;;
54841;SDS011;40741;45.002;7.536;2024-01-30T08:05:11;78.68;;;41.97;;
54841;SDS011;40741;45.002;7.536;2024-01-30T08:07:39;93.85;;;45.17;;
54841;SDS011;40741;45.002;7.536;2024-01-30T08:10:05;96.35;;;48.72;;
54841;SDS011;40741;45.002;7.536;2024-01-30T08:12:31;110.35;;;52.45;;
54841;SDS011;40741;45.002;7.536;2024-01-30T08:14:57;119.40;;;51.90;;
54841;SDS011;40741;45.002;7.536;2024-01-30T08:17:23;112.57;;;52.72;;
54841;SDS011;40741;45.002;7.536;2024-01-30T08:19:49;99.90;;;46.53;;
54841;SDS011;40741;45.002;7.536;2024-01-30T08:22:15;103.68;;;47.63;;
54841;SDS011;40741;45.002;7.536;2024-01-30T08:24:42;91.03;;;45.33;;
54841;SDS011;40741;45.002;7.536;2024-01-30T08:27:08;86.00;;;43.80;;
54841;SDS011;40741;45.002;7.536;2024-01-30T08:29:37;93.40;;;45.45;;
54841;SDS011;40741;45.002;7.536;2024-01-30T08:32:06;95.70;;;46.00;;
54841;SDS011;40741;45.002;7.536;2024-01-30T08:34:32;95.20;;;46.75;;
54841;SDS011;40741;45.002;7.536;2024-01-30T08:36:59;100.25;;;45.85;;
54841;SDS011;40741;45.002;7.536;2024-01-30T08:39:25;94.35;;;43.08;;
54841;SDS011;40741;45.002;7.536;2024-01-30T08:41:51;88.75;;;45.83;;
54841;SDS011;40741;45.002;7.536;2024-01-30T08:44:17;81.40;;;43.83;;
54841;SDS011;40741;45.002;7.536;2024-01-30T08:46:46;84.72;;;42.60;;
54841;SDS011;40741;45.002;7.536;2024-01-30T08:49:13;78.97;;;41.83;;
54841;SDS011;40741;45.002;7.536;2024-01-30T08:51:39;75.38;;;40.47;;
54841;SDS011;40741;45.002;7.536;2024-01-30T08:54:05;75.82;;;40.20;;
54841;SDS011;40741;45.002;7.536;2024-01-30T08:56:32;80.28;;;41.13;;
54841;SDS011;40741;45.002;7.536;2024-01-30T08:58:58;70.32;;;39.13;;
54841;SDS011;40741;45.002;7.536;2024-01-30T09:01:27;74.25;;;38.78;;
54841;SDS011;40741;45.002;7.536;2024-01-30T09:03:53;73.10;;;40.25;;
54841;SDS011;40741;45.002;7.536;2024-01-30T09:06:19;72.03;;;38.05;;
54841;SDS011;40741;45.002;7.536;2024-01-30T09:08:45;72.10;;;38.05;;
54841;SDS011;40741;45.002;7.536;2024-01-30T09:11:12;64.45;;;36.50;;
54841;SDS011;40741;45.002;7.536;2024-01-30T09:13:38;72.63;;;38.40;;
54841;SDS011;40741;45.002;7.536;2024-01-30T09:16:04;70.97;;;38.88;;
54841;SDS011;40741;45.002;7.536;2024-01-30T09:18:31;73.70;;;40.83;;
54841;SDS011;40741;45.002;7.536;2024-01-30T09:20:57;75.65;;;42.33;;
54841;SDS011;40741;45.002;7.536;2024-01-30T09:23:23;79.65;;;44.97;;
54841;SDS011;40741;45.002;7.536;2024-01-30T09:25:49;83.88;;;44.90;;
54841;SDS011;40741;45.002;7.536;2024-01-30T09:28:17;82.38;;;43.50;;
54841;SDS011;40741;45.002;7.536;2024-01-30T09:30:43;79.00;;;45.08;;
54841;SDS011;40741;45.002;7.536;2024-01-30T09:33:09;76.25;;;44.47;;
54841;SDS011;40741;45.002;7.536;2024-01-30T09:35:38;73.40;;;43.13;;
54841;SDS011;40741;45.002;7.536;2024-01-30T09:38:04;83.80;;;46.67;;
54841;SDS011;40741;45.002;7.536;2024-01-30T09:40:30;83.85;;;46.13;;
54841;SDS011;40741;45.002;7.536;2024-01-30T09:42:56;85.75;;;47.20;;
54841;SDS011;40741;45.002;7.536;2024-01-30T09:45:25;81.45;;;45.30;;
54841;SDS011;40741;45.002;7.536;2024-01-30T09:47:52;83.22;;;47.00;;
54841;SDS011;40741;45.002;7.536;2024-01-30T09:50:18;86.93;;;48.85;;
54841;SDS011;40741;45.002;7.536;2024-01-30T09:52:45;86.45;;;47.15;;
54841;SDS011;40741;45.002;7.536;2024-01-30T09:55:11;88.15;;;48.45;;
54841;SDS011;40741;45.002;7.536;2024-01-30T09:57:38;85.68;;;48.53;;
54841;SDS011;40741;45.002;7.536;2024-01-30T10:00:05;86.57;;;48.67;;
54841;SDS011;40741;45.002;7.536;2024-01-30T10:02:33;85.03;;;49.13;;
54841;SDS011;40741;45.002;7.536;2024-01-30T10:04:59;83.20;;;47.85;;
54841;SDS011;40741;45.002;7.536;2024-01-30T10:07:26;82.15;;;46.42;;
54841;SDS011;40741;45.002;7.536;2024-01-30T10:09:52;88.25;;;47.83;;
54841;SDS011;40741;45.002;7.536;2024-01-30T10:12:20;78.97;;;46.65;;
54841;SDS011;40741;45.002;7.536;2024-01-30T10:14:46;75.10;;;45.15;;
54841;SDS011;40741;45.002;7.536;2024-01-30T10:17:12;75.05;;;44.78;;
54841;SDS011;40741;45.002;7.536;2024-01-30T10:19:39;89.93;;;47.42;;
54841;SDS011;40741;45.002;7.536;2024-01-30T10:22:05;84.43;;;46.88;;
54841;SDS011;40741;45.002;7.536;2024-01-30T10:24:33;82.05;;;44.65;;
54841;SDS011;40741;45.002;7.536;2024-01-30T10:26:59;75.38;;;43.13;;
54841;SDS011;40741;45.002;7.536;2024-01-30T10:29:26;77.22;;;43.33;;
54841;SDS011;40741;45.002;7.536;2024-01-30T10:31:59;75.97;;;42.83;;
54841;SDS011;40741;45.002;7.536;2024-01-30T10:36:52;75.97;;;41.88;;
54841;SDS011;40741;45.002;7.536;2024-01-30T10:39:22;72.55;;;41.72;;
54841;SDS011;40741;45.002;7.536;2024-01-30T10:41:48;69.43;;;39.50;;
54841;SDS011;40741;45.002;7.536;2024-01-30T10:44:18;70.75;;;39.78;;
54841;SDS011;40741;45.002;7.536;2024-01-30T10:46:45;71.85;;;38.60;;
54841;SDS011;40741;45.002;7.536;2024-01-30T10:49:13;73.70;;;40.05;;
54841;SDS011;40741;45.002;7.536;2024-01-30T10:51:40;68.93;;;37.55;;
54841;SDS011;40741;45.002;7.536;2024-01-30T10:54:06;70.85;;;39.58;;
54841;SDS011;40741;45.002;7.536;2024-01-30T10:56:32;66.45;;;38.25;;
54841;SDS011;40741;45.002;7.536;2024-01-30T10:58:59;69.60;;;38.20;;
54841;SDS011;40741;45.002;7.536;2024-01-30T11:01:26;72.50;;;40.25;;
54841;SDS011;40741;45.002;7.536;2024-01-30T11:03:54;69.38;;;39.25;;
54841;SDS011;40741;45.002;7.536;2024-01-30T11:06:25;66.50;;;38.97;;
54841;SDS011;40741;45.002;7.536;2024-01-30T11:09:03;64.32;;;39.10;;
54841;SDS011;40741;45.002;7.536;2024-01-30T11:11:47;69.63;;;39.92;;
54841;SDS011;40741;45.002;7.536;2024-01-30T11:14:13;73.07;;;38.72;;
54841;SDS011;40741;45.002;7.536;2024-01-30T11:16:40;70.72;;;38.50;;
54841;SDS011;40741;45.002;7.536;2024-01-30T11:19:10;68.53;;;39.08;;
54841;SDS011;40741;45.002;7.536;2024-01-30T11:21:43;69.53;;;38.28;;
54841;SDS011;40741;45.002;7.536;2024-01-30T11:24:09;70.00;;;37.28;;
54841;SDS011;40741;45.002;7.536;2024-01-30T11:26:35;64.30;;;36.95;;
54841;SDS011;40741;45.002;7.536;2024-01-30T11:29:07;69.05;;;38.03;;
54841;SDS011;40741;45.002;7.536;2024-01-30T11:34:00;61.20;;;33.15;;
54841;SDS011;40741;45.002;7.536;2024-01-30T11:36:26;61.63;;;35.78;;
54841;SDS011;40741;45.002;7.536;2024-01-30T11:38:52;66.13;;;36.92;;
54841;SDS011;40741;45.002;7.536;2024-01-30T11:41:19;63.10;;;35.95;;
54841;SDS011;40741;45.002;7.536;2024-01-30T11:43:52;55.65;;;35.05;;
54841;SDS011;40741;45.002;7.536;2024-01-30T11:48:44;62.25;;;35.58;;
54841;SDS011;40741;45.002;7.536;2024-01-30T11:51:12;68.40;;;35.67;;
54841;SDS011;40741;45.002;7.536;2024-01-30T11:53:38;65.45;;;37.22;;
54841;SDS011;40741;45.002;7.536;2024-01-30T11:56:06;65.43;;;35.00;;
54841;SDS011;40741;45.002;7.536;2024-01-30T11:58:33;51.72;;;29.75;;
54841;SDS011;40741;45.002;7.536;2024-01-30T12:00:59;55.50;;;31.00;;
54841;SDS011;40741;45.002;7.536;2024-01-30T12:03:25;62.28;;;32.10;;
54841;SDS011;40741;45.002;7.536;2024-01-30T12:05:58;62.28;;;31.52;;
54841;SDS011;40741;45.002;7.536;2024-01-30T12:08:24;54.53;;;32.00;;
54841;SDS011;40741;45.002;7.536;2024-01-30T12:10:56;60.00;;;31.75;;
54841;SDS011;40741;45.002;7.536;2024-01-30T12:13:30;61.13;;;33.83;;
54841;SDS011;40741;45.002;7.536;2024-01-30T12:15:56;57.30;;;32.97;;
54841;SDS011;40741;45.002;7.536;2024-01-30T12:18:22;60.53;;;33.72;;
54841;SDS011;40741;45.002;7.536;2024-01-30T12:20:58;65.20;;;36.67;;
54841;SDS011;40741;45.002;7.536;2024-01-30T12:23:24;62.20;;;35.30;;
54841;SDS011;40741;45.002;7.536;2024-01-30T12:25:51;63.03;;;34.33;;
54841;SDS011;40741;45.002;7.536;2024-01-30T12:28:19;62.10;;;34.75;;
54841;SDS011;40741;45.002;7.536;2024-01-30T12:30:45;62.70;;;36.78;;
54841;SDS011;40741;45.002;7.536;2024-01-30T12:33:16;63.05;;;35.95;;
54841;SDS011;40741;45.002;7.536;2024-01-30T12:35:46;59.38;;;35.50;;
54841;SDS011;40741;45.002;7.536;2024-01-30T12:40:41;63.05;;;35.25;;
54841;SDS011;40741;45.002;7.536;2024-01-30T12:43:07;58.85;;;33.17;;
54841;SDS011;40741;45.002;7.536;2024-01-30T12:45:34;58.70;;;35.13;;
54841;SDS011;40741;45.002;7.536;2024-01-30T12:48:00;65.50;;;38.00;;
54841;SDS011;40741;45.002;7.536;2024-01-30T12:50:26;66.78;;;40.25;;
54841;SDS011;40741;45.002;7.536;2024-01-30T12:52:52;69.10;;;41.17;;
54841;SDS011;40741;45.002;7.536;2024-01-30T12:55:18;53.00;;;32.75;;
54841;SDS011;40741;45.002;7.536;2024-01-30T12:57:44;36.10;;;22.30;;
54841;SDS011;40741;45.002;7.536;2024-01-30T13:00:10;65.25;;;38.00;;
54841;SDS011;40741;45.002;7.536;2024-01-30T13:02:37;65.05;;;38.65;;
54841;SDS011;40741;45.002;7.536;2024-01-30T13:05:03;59.95;;;36.30;;
54841;SDS011;40741;45.002;7.536;2024-01-30T13:07:29;58.08;;;33.35;;
54841;SDS011;40741;45.002;7.536;2024-01-30T13:09:58;62.33;;;32.17;;
54841;SDS011;40741;45.002;7.536;2024-01-30T13:12:28;54.67;;;30.52;;
54841;SDS011;40741;45.002;7.536;2024-01-30T13:14:54;45.22;;;24.45;;
54841;SDS011;40741;45.002;7.536;2024-01-30T13:17:20;58.33;;;29.85;;
54841;SDS011;40741;45.002;7.536;2024-01-30T13:19:46;54.33;;;31.65;;
54841;SDS011;40741;45.002;7.536;2024-01-30T13:22:14;54.03;;;29.63;;
54841;SDS011;40741;45.002;7.536;2024-01-30T13:24:40;64.85;;;31.50;;
54841;SDS011;40741;45.002;7.536;2024-01-30T13:27:06;57.63;;;32.28;;
54841;SDS011;40741;45.002;7.536;2024-01-30T13:29:33;43.97;;;25.38;;
54841;SDS011;40741;45.002;7.536;2024-01-30T13:31:59;59.83;;;33.58;;
54841;SDS011;40741;45.002;7.536;2024-01-30T13:34:25;51.75;;;32.25;;
54841;SDS011;40741;45.002;7.536;2024-01-30T13:36:51;60.55;;;31.70;;
54841;SDS011;40741;45.002;7.536;2024-01-30T13:39:18;56.83;;;30.70;;
54841;SDS011;40741;45.002;7.536;2024-01-30T13:41:44;60.28;;;32.47;;
54841;SDS011;40741;45.002;7.536;2024-01-30T13:44:10;50.30;;;30.75;;
54841;SDS011;40741;45.002;7.536;2024-01-30T13:46:36;56.97;;;31.17;;
54841;SDS011;40741;45.002;7.536;2024-01-30T13:49:04;58.65;;;32.53;;
54841;SDS011;40741;45.002;7.536;2024-01-30T13:51:30;57.65;;;31.50;;
54841;SDS011;40741;45.002;7.536;2024-01-30T13:53:56;57.03;;;32.13;;
54841;SDS011;40741;45.002;7.536;2024-01-30T13:56:22;54.38;;;29.85;;
54841;SDS011;40741;45.002;7.536;2024-01-30T13:58:48;53.47;;;30.88;;
54841;SDS011;40741;45.002;7.536;2024-01-30T14:01:18;59.53;;;30.67;;
54841;SDS011;40741;45.002;7.536;2024-01-30T14:03:44;51.90;;;29.20;;
54841;SDS011;40741;45.002;7.536;2024-01-30T14:06:11;51.80;;;28.70;;
54841;SDS011;40741;45.002;7.536;2024-01-30T14:08:37;52.97;;;28.08;;
54841;SDS011;40741;45.002;7.536;2024-01-30T14:11:03;51.78;;;27.42;;
54841;SDS011;40741;45.002;7.536;2024-01-30T14:13:29;53.75;;;26.45;;
54841;SDS011;40741;45.002;7.536;2024-01-30T14:15:57;53.17;;;26.27;;
54841;SDS011;40741;45.002;7.536;2024-01-30T14:18:23;14.45;;;8.52;;
54841;SDS011;40741;45.002;7.536;2024-01-30T14:20:50;10.80;;;7.47;;
54841;SDS011;40741;45.002;7.536;2024-01-30T14:23:17;45.22;;;19.90;;
54841;SDS011;40741;45.002;7.536;2024-01-30T14:25:43;46.63;;;21.95;;
54841;SDS011;40741;45.002;7.536;2024-01-30T14:28:09;40.20;;;20.02;;